Reubens, ID (83548)

2:29 AM PST on February 13, 2016 (GMT -0800)
Camas Prairie | | Change Station
CLOSE
Current Station
Personal Weather Station
Location: Reubens, ID
Elevation: 3480 ft
Nearby Weather Stations

Elev 3480 ft 46.35 °N, 116.53 °W | Updated 7 seconds ago

Overcast
Overcast
37.6 °F
Feels Like 33 °F
N
5.8
Wind Variable Wind from NW
Gusts 5.8 mph

Today
High -- | Low -- °F
--% Chance of Precip.
Yesterday
High -- | Low -- °F
Precip. -- in
Pressure 30.16 in
Visibility 10.0 miles
Clouds Scattered Clouds 800 ft
Overcast 1500 ft
Windchill 33 °F
Dew Point 35 °F
Humidity 91%
Rainfall 0.02 in
Snow Depth Not available.
6:53 AM 5:08 PM
Waxing Crescent, 29% visible
METAR KGIC 131015Z AUTO 11005KT 10SM SCT008 OVC015 03/02 A3016 RMK AO1 P0001
Pressure 30.16 in
Visibility 10.0 miles
Clouds Scattered Clouds 800 ft
Overcast 1500 ft
Windchill 33 °F
Dew Point 35 °F
Humidity 91%
Rainfall 0.02 in
Snow Depth Not available.
6:53 AM 5:08 PM
Waxing Crescent, 29% visible
METAR KGIC 131015Z AUTO 11005KT 10SM SCT008 OVC015 03/02 A3016 RMK AO1 P0001

10-Day Weather Forecast

Almanac

Astronomy

Feb. 13, 2016 Rise Set
Actual Time
Civil Twilight
Nautical Twilight
Astronomical Twilight
Moon
Length of Visible Light
Length of Day
Tomorrow will be .
, % of the Moon is Illuminated

Today's Extremes

State Highs State Lows

Community

WunderPhotos

Upload Photos

1,892,536 photos uploaded!

WunderBlog® & News

Nearby

Air Quality

  Air Quality AQ Index Pollutant
Not available.

Snow Depth

Station Depth Elevation

Earthquake Activity

City Distance Mag. Time & Date
Minimum magnitude displayed is 2.5.

Coastal Water Temperatures

Place Temperature

Stations

Nearby Weather Stations

Station Location Temp. Windchill Dew Point Humidity Wind Precip. Elev Updated Type
                   

Watches & Warnings

There are currently no watches in effect.